Home   Weather   Republic of Poland   Past weeks
Flag for Poland

Past Weather in Republic of Poland, Poland — Yesterday and Last 2 Weeks

Currently: 59 °F. Clear. (Weather station: Warsaw Okecie Airport, Poland). See more current weather

Past Weather in Republic of Poland — Graph

°F

Republic of Poland Temperature Yesterday

Maximum temperature yesterday: 73 °F (at 10:00 am)
Minimum temperature yesterday: 52 °F (at 4:30 am)
Average temperature yesterday: 63 °F

High & Low Weather Summary for the Past Weeks

 TemperatureHumidityPressure
High79 °F (May 30, 2:00 pm)100% (May 30, 4:00 am)30.04 "Hg (May 30, 4:00 am)
Low46 °F (Jun 12, 4:00 am)36% (May 30, 4:00 pm)29.62 "Hg (Jun 10, 5:30 pm)
Average65 °F71%29.85 "Hg
* Reported May 28 8:00 pm — Jun 12 8:00 pm, Republic of Poland. Weather by CustomWeather, © 2024

Note: Actual official high and low records may vary slightly from our data, if they occured in-between our weather recording intervals... More about our weather records

Republic of Poland Weather History for the Previous 24 Hours

Scroll right to see more
 ConditionsComfort  
Time TempWeatherWind HumidityBarometerVisibility
8:00 pm
Wed, Jun 12
63 °FSunny.9 mph45%30.01 "Hg10 mi
7:00 pm66 °FPassing clouds.8 mph40%30.01 "HgN/A
6:30 pm64 °FSunny.10 mph46%30.01 "Hg10 mi
6:00 pm64 °FSunny.10 mph46%30.01 "Hg10 mi
5:30 pm64 °FSunny.10 mph46%30.01 "Hg10 mi
5:00 pm64 °FPassing clouds.10 mph43%30.01 "HgN/A
4:30 pm66 °FSunny.10 mph43%30.01 "Hg10 mi
4:00 pm66 °FSunny.13 mph43%30.01 "Hg10 mi
3:30 pm66 °FPassing clouds.13 mph43%30.01 "HgN/A
3:00 pm64 °FPassing clouds.12 mph46%30.01 "HgN/A
2:30 pm64 °FPassing clouds.13 mph49%30.01 "HgN/A
1:00 pm64 °FPassing clouds.10 mph46%30.01 "HgN/A
12:30 pm64 °FPassing clouds.9 mph49%30.01 "HgN/A
12:00 pm64 °FSunny.12 mph46%30.01 "Hg10 mi
11:30 am63 °FPassing clouds.9 mph49%30.01 "HgN/A
11:00 am63 °FPassing clouds.8 mph49%30.01 "HgN/A
10:00 am63 °FPassing clouds.9 mph49%30.01 "HgN/A
9:30 am63 °FPassing clouds.7 mph52%30.01 "HgN/A
9:00 am61 °FPassing clouds.6 mph59%30.01 "HgN/A
8:30 am59 °FSunny.7 mph63%30.01 "Hg10 mi
8:00 am59 °FSunny.7 mph59%30.01 "Hg10 mi
7:30 am59 °FPassing clouds.6 mph63%30.01 "HgN/A
7:00 am57 °FPassing clouds.5 mph72%30.01 "HgN/A
6:30 am54 °FSunny.5 mph77%30.01 "Hg10 mi
6:00 am52 °FSunny.2 mph82%30.01 "Hg10 mi
5:30 am50 °FPassing clouds.3 mph88%30.01 "HgN/A
5:00 am46 °FSunny.6 mph87%29.98 "Hg10 mi
4:00 am46 °FClear.6 mph87%29.98 "Hg10 mi
3:00 am48 °FClear.6 mph82%29.98 "Hg10 mi
2:30 am48 °FClear.6 mph87%29.98 "Hg10 mi
2:00 am50 °FClear.6 mph82%29.95 "Hg10 mi
1:30 am50 °FClear.5 mph82%29.95 "Hg10 mi
1:00 am50 °FClear.7 mph82%29.95 "Hg10 mi
12:30 am50 °FClear.7 mph82%29.95 "Hg10 mi
12:00 am52 °FClear.8 mph77%29.95 "Hg10 mi
11:30 pm
Tue, Jun 11
52 °FClear.6 mph77%29.95 "Hg10 mi
11:00 pm52 °FClear.7 mph77%29.95 "Hg10 mi
10:30 pm54 °FClear.8 mph72%29.92 "Hg10 mi
9:30 pm55 °FClear.8 mph67%29.92 "Hg10 mi
9:00 pm57 °FClear.9 mph63%29.89 "Hg10 mi
Weather by CustomWeather, © 2024

See weather overview